• Join FlightAware (Why Join?)
  • Login
  • US Flag 
11:41AM EST


 

Airport Tracker/Info


-or-


 

Live Flight TrackerFlight Track Log ✈ WBR2625 ✈ 5 Jul 2013 ✈ KORD - KBRL

Flight Track Log - Related Links

Times and Time Zones

All times are in EDT time to prevent confusion due to time zone crossing. See the WBR2625 flight status page for this flight to view local times or setup timezone preferences in your user account.

Time Position Orientation Groundspeed Altitude Reporting Facility
EDT Latitude Longitude Course Direction KTS MPH feet Rate Location/Type
08:00PM 41.9500 -87.9167 270° West 85 98 1,900  Level Chicago TRACON
08:01PM 41.9500 -87.9500 270° West 90 104 2,700 960 Climbing Chicago TRACON
08:02PM 41.9333 -87.9833 236° Southwest 105 121 3,900 840 Climbing Chicago TRACON
08:03PM 41.9167 -88.0167 236° Southwest 118 136 4,600 780 Climbing Chicago TRACON
08:04PM 41.9000 -88.0500 236° Southwest 124 143 5,500 720 Climbing Chicago TRACON
08:05PM 41.9000 -88.1000 270° West 138 159 6,100 300 Climbing Chicago TRACON
08:06PM 41.9667 -88.2362 270° West  Level FlightAware Approximate
08:06PM 41.9000 -88.1500 270° West 151 174 6,100  Level Chicago TRACON
08:07PM 41.9003 -88.1792 271° West 147 169 6,100 420 Level Chicago Center
08:08PM 41.9003 -88.2353 270° West 152 175 6,800 840 Climbing Chicago Center
08:09PM 41.9006 -88.2944 270° West 139 160 7,900 600 Climbing Chicago Center
08:10PM 41.9033 -88.3453 274° West 136 157 8,100 60 Climbing Chicago Center
08:11PM 41.9014 -88.4017 267° West 148 170 8,100  Level Chicago Center
08:12PM 41.9019 -88.4597 271° West 154 177 8,100  Level Chicago Center
08:13PM 41.9000 -88.5153 267° West 153 176 8,100 -60 Level Chicago Center
08:14PM 41.8986 -88.5722 268° West 153 176 8,000 -60 Descending Chicago Center
08:15PM 41.9017 -88.6392 274° West 151 174 8,000  Level Chicago Center
08:16PM 41.9044 -88.6961 274° West 153 176 8,000  Level Chicago Center
08:17PM 41.9008 -88.7522 265° West 153 176 8,000  Level Chicago Center
08:18PM 41.9006 -88.8069 270° West 150 173 8,100  Climbing Chicago Center
08:20PM 41.8683 -88.8765 235° Southwest  Level Estimated
08:20PM 41.8589 -88.9019 235° Southwest 151 174 8,000  Level Chicago Center
08:21PM 41.8381 -88.9500 240° Southwest 150 173 8,000  Level Chicago Center
08:22PM 41.8139 -89.0075 241° Southwest 149 171 8,000  Level Chicago Center
08:23PM 41.7919 -89.0542 238° Southwest 150 173 8,100  Climbing Chicago Center
08:24PM 41.7697 -89.1017 238° Southwest 151 174 8,000 -60 Descending Chicago Center
08:25PM 41.7475 -89.1475 237° Southwest 150 173 8,000  Level Chicago Center
08:26PM 41.7269 -89.1953 240° Southwest 150 173 8,000  Level Chicago Center
08:27PM 41.7081 -89.2442 243° Southwest 150 173 8,100  Climbing Chicago Center
08:28PM 41.6900 -89.2925 243° Southwest 149 171 8,100  Level Chicago Center
08:29PM 41.6644 -89.3506 240° Southwest 153 176 8,100 -60 Level Chicago Center
08:30PM 41.6414 -89.3967 236° Southwest 151 174 8,000  Descending Chicago Center
08:31PM 41.6211 -89.4453 241° Southwest 150 173 8,100  Climbing Chicago Center
08:32PM 41.5969 -89.4922 235° Southwest 152 175 8,100  Level Chicago Center
08:33PM 41.5742 -89.5386 237° Southwest 153 176 8,100  Level Chicago Center
08:34PM 41.5514 -89.5842 236° Southwest 152 175 8,100  Level Chicago Center
08:35PM 41.5281 -89.6300 236° Southwest 151 174 8,100  Level Chicago Center
08:36PM 41.4981 -89.6869 235° Southwest 156 180 8,100  Level Chicago Center
08:37PM 41.4750 -89.7342 237° Southwest 153 176 8,100  Level Chicago Center
08:38PM 41.4511 -89.7794 235° Southwest 150 173 8,100  Level Chicago Center
08:40PM 41.4286 -89.8264 237° Southwest 151 174 8,100  Level Chicago Center
08:41PM 41.4069 -89.8719 238° Southwest 148 170 8,100  Level Chicago Center
08:42PM 41.3836 -89.9178 236° Southwest 150 173 8,100  Level Chicago Center
08:43PM 41.3639 -89.9656 241° Southwest 149 171 8,100  Level Chicago Center
08:44PM 41.3408 -90.0131 237° Southwest 150 173 8,100  Level Chicago Center
08:45PM 41.3186 -90.0575 236° Southwest 147 169 8,100  Level Chicago Center
08:46PM 41.2919 -90.1133 238° Southwest 150 173 8,100  Level Chicago Center
08:47PM 41.2694 -90.1589 237° Southwest 148 170 8,100  Level Chicago Center
08:48PM 41.2464 -90.2047 236° Southwest 149 171 8,100  Level Chicago Center
08:49PM 41.2222 -90.2517 236° Southwest 153 176 8,100  Level Chicago Center
08:50PM 41.2000 -90.2964 237° Southwest 147 169 8,100  Level Chicago Center
08:51PM 41.1794 -90.3444 240° Southwest 149 171 8,100  Level Chicago Center
08:52PM 41.1606 -90.3917 242° Southwest 146 168 8,100  Level Chicago Center
08:53PM 41.1358 -90.4356 233° Southwest 148 170 8,100  Level Chicago Center
08:54PM 41.1064 -90.4900 234° Southwest 151 174 8,100 -60 Level Chicago Center
08:55PM 41.0853 -90.5378 240° Southwest 151 174 8,000 -120 Descending Chicago Center
08:56PM 41.0658 -90.5839 241° Southwest 144 166 7,900 -360 Descending Chicago Center
08:57PM 41.0414 -90.6286 234° Southwest 150 173 7,300 -600 Descending Chicago Center
08:58PM 41.0128 -90.6672 226° Southwest 148 170 6,700 -600 Descending Chicago Center
08:59PM 40.9878 -90.7100 232° Southwest 146 168 6,100 -600 Descending Chicago Center
09:00PM 40.9681 -90.7583 242° Southwest 148 170 5,500 -660 Descending Chicago Center
09:01PM 40.9481 -90.8069 241° Southwest 150 173 4,800 -720 Descending Chicago Center
09:02PM 40.9253 -90.8639 242° Southwest 147 169 4,100 -600 Descending Chicago Center
09:03PM 40.9094 -90.9128 247° West 148 170 3,600 -540 Descending Chicago Center
09:04PM 40.8931 -90.9628 247° West 148 170 3,100 -420 Descending Chicago Center
09:05PM 40.8803 -91.0119 251° West 146 168 2,800 -300 Descending Chicago Center
09:06PM 40.8636 -91.0594 245° Southwest 143 165 2,500 -300 Descending Chicago Center
09:07PM 40.8478 -91.1042 245° Southwest 143 165 2,300 -240 Descending Chicago Center
09:09PM 40.7956 -91.1214 217° Southwest  Level Estimated